createdAt,value
2017-07-04T04:00:47.692Z,5
2017-07-04T04:01:13.175Z,5
2017-07-04T04:01:38.701Z,5
2017-07-04T04:02:04.191Z,5
2017-07-04T04:02:29.689Z,5
2017-07-04T04:02:59.802Z,5
2017-07-04T04:03:25.243Z,10
2017-07-04T04:03:50.675Z,10
2017-07-04T04:04:16.173Z,10
2017-07-04T04:04:41.631Z,10
2017-07-04T04:05:07.285Z,10
2017-07-04T04:05:32.759Z,10
2017-07-04T04:05:58.181Z,10
2017-07-04T04:06:23.644Z,15
2017-07-04T04:06:49.058Z,15
2017-07-04T04:07:14.537Z,20
2017-07-04T04:07:39.989Z,20
2017-07-04T04:08:05.416Z,20
2017-07-04T04:08:30.901Z,20
2017-07-04T04:08:56.365Z,25
2017-07-04T04:09:21.882Z,25
2017-07-04T04:09:47.283Z,30
2017-07-04T04:10:12.814Z,30
2017-07-04T04:10:38.257Z,35
2017-07-04T04:11:03.718Z,35
2017-07-04T04:11:29.241Z,35
2017-07-04T04:11:54.686Z,35
2017-07-04T04:12:20.173Z,40
2017-07-04T04:12:45.638Z,40
2017-07-04T04:13:11.120Z,40
2017-07-04T04:13:36.591Z,45
2017-07-04T04:14:02.028Z,45
2017-07-04T04:14:27.488Z,40
2017-07-04T04:14:52.994Z,40
2017-07-04T04:15:18.431Z,40
2017-07-04T04:15:43.922Z,40
2017-07-04T04:16:09.361Z,40
2017-07-04T04:16:34.826Z,40
2017-07-04T04:17:00.314Z,40
2017-07-04T04:17:25.789Z,40
2017-07-04T04:17:51.243Z,40
2017-07-04T04:18:16.699Z,40
2017-07-04T04:18:42.154Z,40
2017-07-04T04:19:07.595Z,45
2017-07-04T04:19:33.061Z,45
2017-07-04T04:19:58.532Z,50
2017-07-04T04:20:23.993Z,50
2017-07-04T04:20:49.457Z,50
2017-07-04T04:21:14.868Z,50
2017-07-04T04:21:40.335Z,55
2017-07-04T04:22:05.768Z,55
2017-07-04T04:22:31.237Z,55
2017-07-04T04:22:56.671Z,55
2017-07-04T04:23:22.134Z,55
2017-07-04T04:23:47.615Z,55
2017-07-04T04:24:13.066Z,55
2017-07-04T04:24:38.519Z,55
2017-07-04T04:25:03.946Z,60
2017-07-04T04:25:29.411Z,60
2017-07-04T04:25:54.869Z,60
2017-07-04T04:26:20.339Z,60
2017-07-04T04:26:45.790Z,65
2017-07-04T04:27:11.237Z,65
2017-07-04T04:27:36.708Z,60
2017-07-04T04:28:02.181Z,60
2017-07-04T04:28:27.612Z,60
2017-07-04T04:28:53.098Z,60
2017-07-04T04:29:18.574Z,65
2017-07-04T04:29:43.983Z,65
2017-07-04T04:30:09.471Z,65
2017-07-04T04:30:34.960Z,65
2017-07-04T04:31:00.395Z,65
2017-07-04T04:31:25.865Z,60
2017-07-04T04:31:51.294Z,65
2017-07-04T04:32:16.741Z,60
2017-07-04T04:32:42.253Z,60
2017-07-04T04:33:07.686Z,65
2017-07-04T04:33:33.152Z,65
2017-07-04T04:33:58.580Z,70
2017-07-04T04:34:24.042Z,70
2017-07-04T04:34:49.533Z,70
2017-07-04T04:35:14.957Z,70
2017-07-04T04:35:40.424Z,75
2017-07-04T04:36:05.862Z,75
2017-07-04T04:36:31.328Z,75
2017-07-04T04:36:56.788Z,75
2017-07-04T04:37:22.240Z,75
2017-07-04T04:37:47.708Z,70
2017-07-04T04:38:13.164Z,70
2017-07-04T04:38:38.610Z,70
2017-07-04T04:39:04.075Z,70
2017-07-04T04:39:29.562Z,65
2017-07-04T04:39:55.033Z,65
2017-07-04T04:40:20.541Z,65
2017-07-04T04:40:46.012Z,65
2017-07-04T04:41:11.484Z,65
2017-07-04T04:41:36.919Z,70
2017-07-04T04:42:02.385Z,70
2017-07-04T04:42:27.787Z,75
2017-07-04T04:42:53.265Z,75
2017-07-04T04:43:18.750Z,75
2017-07-04T04:43:44.178Z,75
2017-07-04T04:44:09.646Z,80
2017-07-04T04:44:35.112Z,80
2017-07-04T04:45:00.547Z,80
2017-07-04T04:45:26.017Z,80
2017-07-04T04:45:51.478Z,80
2017-07-04T04:46:16.949Z,75
2017-07-04T04:46:42.406Z,75
2017-07-04T04:47:07.923Z,75
2017-07-04T04:47:33.382Z,75
2017-07-04T04:47:58.964Z,80
2017-07-04T04:48:24.340Z,80
2017-07-04T04:48:49.811Z,80
2017-07-04T04:49:15.302Z,80
2017-07-04T04:49:40.725Z,80
2017-07-04T04:50:06.189Z,80
2017-07-04T04:50:31.631Z,85
2017-07-04T04:50:57.176Z,80
2017-07-04T04:51:22.614Z,85
2017-07-04T04:51:48.105Z,85
2017-07-04T04:52:13.549Z,90
2017-07-04T04:52:38.994Z,90
2017-07-04T04:53:07.094Z,90
2017-07-04T04:53:32.572Z,90
2017-07-04T04:53:58.020Z,90
2017-07-04T04:54:23.538Z,90
2017-07-04T04:54:48.966Z,85
2017-07-04T04:55:14.458Z,85
2017-07-04T04:55:39.899Z,80
2017-07-04T04:56:05.390Z,85
2017-07-04T04:56:30.846Z,85
2017-07-04T04:56:56.300Z,90
2017-07-04T04:57:21.779Z,90
2017-07-04T04:57:47.261Z,90
2017-07-04T04:58:12.715Z,90
2017-07-04T04:58:38.167Z,85
2017-07-04T04:59:03.627Z,80
2017-07-04T04:59:29.089Z,75
2017-07-04T04:59:54.533Z,70
2017-07-04T05:00:19.993Z,70
2017-07-04T05:00:45.466Z,65
2017-07-04T05:01:10.914Z,55
2017-07-04T05:01:36.363Z,50
2017-07-04T05:02:01.881Z,45
2017-07-04T05:02:27.365Z,45
2017-07-04T05:02:52.783Z,40
2017-07-04T05:03:18.282Z,40
2017-07-04T05:03:43.718Z,40
2017-07-04T05:04:09.161Z,40
2017-07-04T05:04:34.613Z,40
2017-07-04T05:05:00.061Z,40
2017-07-04T05:05:25.508Z,40
2017-07-04T05:05:50.979Z,40
2017-07-04T05:06:16.455Z,40
2017-07-04T05:06:41.900Z,40
2017-07-04T05:07:07.353Z,40
2017-07-04T05:07:32.807Z,40
2017-07-04T05:07:58.299Z,40
2017-07-04T05:08:23.767Z,40
2017-07-04T05:08:49.235Z,40
2017-07-04T05:09:14.689Z,40
2017-07-04T05:09:40.201Z,40
2017-07-04T05:10:05.606Z,45
2017-07-04T05:10:31.081Z,45
2017-07-04T05:10:56.524Z,50
2017-07-04T05:11:21.995Z,50
2017-07-04T05:11:47.456Z,50
2017-07-04T05:12:12.883Z,50
2017-07-04T05:12:38.332Z,50
2017-07-04T05:13:03.776Z,50
2017-07-04T05:13:29.254Z,45
2017-07-04T05:13:54.714Z,45
2017-07-04T05:14:20.146Z,40
2017-07-04T05:14:45.622Z,35
2017-07-04T05:15:11.067Z,40
2017-07-04T05:15:36.514Z,40
2017-07-04T05:16:01.983Z,45
2017-07-04T05:16:27.426Z,45
2017-07-04T05:16:52.896Z,50
2017-07-04T05:17:18.396Z,50
2017-07-04T05:17:43.836Z,55
2017-07-04T05:18:09.264Z,55
2017-07-04T05:18:34.728Z,55
2017-07-04T05:19:00.180Z,60
2017-07-04T05:19:25.636Z,55
2017-07-04T05:19:51.098Z,50
2017-07-04T05:20:16.549Z,50
2017-07-04T05:20:42.022Z,55
2017-07-04T05:21:07.472Z,55
2017-07-04T05:21:32.901Z,65
2017-07-04T05:21:58.367Z,75
2017-07-04T05:22:23.835Z,80
2017-07-04T05:22:49.324Z,85
2017-07-04T05:23:14.762Z,90
2017-07-04T05:23:40.200Z,90
2017-07-04T05:24:05.654Z,90
2017-07-04T05:24:31.084Z,90
2017-07-04T05:24:56.545Z,90
2017-07-04T05:25:22.007Z,85
2017-07-04T05:25:47.494Z,85
2017-07-04T05:26:12.948Z,85
2017-07-04T05:26:38.405Z,85
2017-07-04T05:27:03.874Z,85
2017-07-04T05:27:29.324Z,85
2017-07-04T05:27:54.748Z,85
2017-07-04T05:28:20.197Z,85
2017-07-04T05:28:45.655Z,85
2017-07-04T05:29:11.097Z,85
2017-07-04T05:29:36.571Z,85
2017-07-04T05:30:02.069Z,85
2017-07-04T05:30:27.497Z,85
2017-07-04T05:30:52.973Z,85
2017-07-04T05:31:18.434Z,85
2017-07-04T05:31:43.875Z,85
2017-07-04T05:32:09.328Z,85
2017-07-04T05:32:34.781Z,85
2017-07-04T05:33:00.252Z,85
2017-07-04T05:33:25.684Z,85
2017-07-04T05:33:51.176Z,85
2017-07-04T05:34:16.612Z,85
2017-07-04T05:34:42.084Z,85
2017-07-04T05:35:07.527Z,80
2017-07-04T05:35:32.974Z,80
2017-07-04T05:35:58.422Z,85
2017-07-04T05:36:23.889Z,85
2017-07-04T05:36:49.311Z,85
2017-07-04T05:37:14.765Z,85
2017-07-04T05:37:40.207Z,85
2017-07-04T05:38:05.653Z,85
2017-07-04T05:38:31.140Z,85
2017-07-04T05:38:56.632Z,85
2017-07-04T05:39:22.069Z,90
2017-07-04T05:39:47.545Z,90
2017-07-04T05:40:12.999Z,90
2017-07-04T05:40:38.516Z,95
2017-07-04T05:41:04.306Z,95
2017-07-04T05:41:29.749Z,90
2017-07-04T05:41:55.232Z,90
2017-07-04T05:42:20.711Z,90
2017-07-04T05:42:46.161Z,90
2017-07-04T05:43:11.760Z,90
2017-07-04T05:43:37.102Z,90
2017-07-04T05:44:02.711Z,90
2017-07-04T05:44:28.101Z,90
2017-07-04T05:44:53.582Z,95
2017-07-04T05:45:19.021Z,100
2017-07-04T05:45:44.488Z,105
2017-07-04T05:46:09.933Z,105
2017-07-04T05:46:35.397Z,110
2017-07-04T05:47:00.854Z,105
2017-07-04T05:47:26.329Z,105
2017-07-04T05:47:51.785Z,105
2017-07-04T05:48:17.239Z,105
2017-07-04T05:48:42.681Z,105
2017-07-04T05:49:08.161Z,105
2017-07-04T05:49:33.605Z,105
2017-07-04T05:49:59.063Z,105
2017-07-04T05:50:24.576Z,110
2017-07-04T05:50:49.983Z,110
2017-07-04T05:51:15.474Z,115
2017-07-04T05:51:40.940Z,115
2017-07-04T05:52:06.381Z,115
2017-07-04T05:52:31.818Z,110
2017-07-04T05:52:57.253Z,110
2017-07-04T05:53:22.699Z,110
2017-07-04T05:53:48.199Z,105
2017-07-04T05:54:13.643Z,105
2017-07-04T05:54:39.127Z,105
2017-07-04T05:55:04.578Z,105
2017-07-04T05:55:30.030Z,105
2017-07-04T05:55:55.627Z,100
2017-07-04T05:56:21.067Z,100
2017-07-04T05:56:46.549Z,100
2017-07-04T05:57:12.001Z,105
2017-07-04T05:57:37.554Z,105
2017-07-04T05:58:02.984Z,105
2017-07-04T05:58:28.489Z,105
2017-07-04T05:58:53.951Z,100
2017-07-04T05:59:19.372Z,100
2017-07-04T05:59:44.842Z,100
2017-07-04T06:00:10.273Z,100
2017-07-04T06:00:35.738Z,100
2017-07-04T06:01:01.183Z,95
2017-07-04T06:01:26.666Z,90
2017-07-04T06:01:52.108Z,85
2017-07-04T06:02:17.573Z,85
2017-07-04T06:02:43.081Z,85
2017-07-04T06:03:08.571Z,80
2017-07-04T06:03:34.003Z,80
2017-07-04T06:03:59.456Z,80
2017-07-04T06:04:24.905Z,75
2017-07-04T06:04:50.371Z,75
2017-07-04T06:05:15.844Z,70
2017-07-04T06:05:41.240Z,80
2017-07-04T06:06:06.684Z,80
2017-07-04T06:06:32.150Z,85
2017-07-04T06:06:57.578Z,85
2017-07-04T06:07:23.052Z,85
2017-07-04T06:07:48.524Z,85
2017-07-04T06:08:13.943Z,85
2017-07-04T06:08:39.410Z,85
2017-07-04T06:09:04.874Z,80
2017-07-04T06:09:30.367Z,75
2017-07-04T06:09:55.852Z,75
2017-07-04T06:10:21.286Z,70
2017-07-04T06:10:46.745Z,75
2017-07-04T06:11:12.163Z,80
2017-07-04T06:11:37.633Z,80
2017-07-04T06:12:03.093Z,80
2017-07-04T06:12:28.548Z,80
2017-07-04T06:12:54.003Z,85
2017-07-04T06:13:19.483Z,85
2017-07-04T06:13:44.922Z,95
2017-07-04T06:14:10.372Z,95
2017-07-04T06:14:35.821Z,100
2017-07-04T06:15:01.299Z,100
2017-07-04T06:15:26.755Z,100
2017-07-04T06:15:52.206Z,100
2017-07-04T06:16:17.638Z,100
2017-07-04T06:16:43.085Z,100
2017-07-04T06:17:08.514Z,100
2017-07-04T06:17:33.983Z,100
2017-07-04T06:17:59.415Z,95
2017-07-04T06:18:24.900Z,95
2017-07-04T06:18:50.304Z,90
2017-07-04T06:19:15.746Z,85
2017-07-04T06:19:41.237Z,85
2017-07-04T06:20:06.697Z,85
2017-07-04T06:20:32.199Z,85
2017-07-04T06:20:57.653Z,80
2017-07-04T06:21:23.075Z,80
2017-07-04T06:21:48.574Z,75
2017-07-04T06:22:14.022Z,70
2017-07-04T06:22:39.537Z,65
2017-07-04T06:23:04.949Z,60
2017-07-04T06:23:30.398Z,60
2017-07-04T06:23:55.853Z,65
2017-07-04T06:24:21.320Z,70
2017-07-04T06:24:46.739Z,70
2017-07-04T06:25:12.282Z,75
2017-07-04T06:25:37.731Z,75
2017-07-04T06:26:03.192Z,75
2017-07-04T06:26:28.641Z,75
2017-07-04T06:26:54.095Z,80
2017-07-04T06:27:19.561Z,85
2017-07-04T06:27:45.007Z,100
2017-07-04T06:28:10.547Z,115
2017-07-04T06:28:35.978Z,120
2017-07-04T06:29:01.449Z,120
2017-07-04T06:29:26.890Z,115
2017-07-04T06:29:52.488Z,110
2017-07-04T06:30:17.891Z,105
2017-07-04T06:30:43.415Z,100
2017-07-04T06:31:08.843Z,95
2017-07-04T06:31:34.305Z,85
2017-07-04T06:31:59.723Z,80
2017-07-04T06:32:25.300Z,80
2017-07-04T06:32:50.747Z,80
2017-07-04T06:33:16.234Z,80
2017-07-04T06:33:41.673Z,80
2017-07-04T06:34:07.191Z,80
2017-07-04T06:34:32.598Z,85
2017-07-04T06:34:58.058Z,85
2017-07-04T06:35:23.467Z,85
2017-07-04T06:35:48.975Z,85
2017-07-04T06:36:14.472Z,85
2017-07-04T06:36:39.926Z,95
2017-07-04T06:37:05.369Z,110
2017-07-04T06:37:30.795Z,120
2017-07-04T06:37:56.278Z,120
2017-07-04T06:38:21.720Z,110
2017-07-04T06:38:47.165Z,95
2017-07-04T06:39:12.623Z,85
2017-07-04T06:39:38.086Z,75
2017-07-04T06:40:03.514Z,75
2017-07-04T06:40:28.953Z,75
2017-07-04T06:40:54.433Z,75
2017-07-04T06:41:19.864Z,75
2017-07-04T06:41:45.328Z,75
2017-07-04T06:42:10.807Z,80
2017-07-04T06:42:36.234Z,80
2017-07-04T06:43:01.687Z,80
2017-07-04T06:43:27.164Z,80
2017-07-04T06:43:52.617Z,75
2017-07-04T06:44:18.088Z,70
2017-07-04T06:44:43.509Z,70
2017-07-04T06:45:09.070Z,65
2017-07-04T06:45:34.455Z,70
2017-07-04T06:45:59.929Z,70
2017-07-04T06:46:25.386Z,75
2017-07-04T06:46:50.886Z,75
2017-07-04T06:47:16.353Z,75
2017-07-04T06:47:41.875Z,70
2017-07-04T06:48:07.291Z,65
2017-07-04T06:48:32.834Z,65
2017-07-04T06:48:58.198Z,65
2017-07-04T06:49:23.685Z,65
2017-07-04T06:49:49.100Z,65
2017-07-04T06:50:14.556Z,70
2017-07-04T06:50:40.042Z,75
2017-07-04T06:51:05.478Z,85
2017-07-04T06:51:30.975Z,90
2017-07-04T06:51:56.406Z,85
2017-07-04T06:52:21.876Z,80
2017-07-04T06:52:47.343Z,75
2017-07-04T06:53:12.871Z,70
2017-07-04T06:53:38.292Z,75
2017-07-04T06:54:03.772Z,80
2017-07-04T06:54:29.209Z,85
2017-07-04T06:54:54.676Z,85
2017-07-04T06:55:20.103Z,90
2017-07-04T06:55:45.599Z,100
2017-07-04T06:56:11.041Z,100
2017-07-04T06:56:36.536Z,100
2017-07-04T06:57:02.009Z,90
2017-07-04T06:57:27.457Z,85
2017-07-04T06:57:52.969Z,75
2017-07-04T06:58:18.385Z,75
2017-07-04T06:58:43.839Z,75
2017-07-04T06:59:09.315Z,75
2017-07-04T06:59:34.758Z,75
2017-07-04T07:00:00.208Z,75
2017-07-04T07:00:25.682Z,80
2017-07-04T07:00:51.171Z,85
2017-07-04T07:01:16.621Z,85
2017-07-04T07:01:42.024Z,80
2017-07-04T07:02:07.511Z,70
2017-07-04T07:02:32.970Z,60
2017-07-04T07:02:58.441Z,65
2017-07-04T07:03:23.894Z,80
2017-07-04T07:03:49.371Z,95
2017-07-04T07:04:15.166Z,120
2017-07-04T07:04:40.645Z,145
2017-07-04T07:05:06.169Z,160
2017-07-04T07:05:31.601Z,160
2017-07-04T07:05:57.059Z,150
2017-07-04T07:06:22.532Z,145
2017-07-04T07:06:47.956Z,150
2017-07-04T07:07:13.420Z,155
2017-07-04T07:07:38.879Z,160
2017-07-04T07:08:04.326Z,150
2017-07-04T07:09:22.710Z,110
2017-07-04T07:09:48.185Z,105
2017-07-04T07:10:13.645Z,105
2017-07-04T07:10:39.111Z,100
2017-07-04T07:11:04.577Z,100
2017-07-04T07:11:30.047Z,105
2017-07-04T07:11:55.508Z,110
2017-07-04T07:12:20.964Z,110
2017-07-04T07:12:46.418Z,105
2017-07-04T07:13:11.903Z,100
2017-07-04T07:13:37.324Z,100
2017-07-04T07:14:02.790Z,105
2017-07-04T07:14:28.263Z,120
2017-07-04T07:14:53.712Z,145
2017-07-04T07:15:19.156Z,175
2017-07-04T07:15:44.644Z,200
2017-07-04T07:16:10.110Z,220
2017-07-04T07:16:35.590Z,220
2017-07-04T07:17:01.096Z,200
2017-07-04T07:17:26.536Z,180
2017-07-04T07:17:51.979Z,165
2017-07-04T07:18:17.414Z,155
2017-07-04T07:18:42.895Z,140
2017-07-04T07:19:08.290Z,130
2017-07-04T07:19:33.786Z,125
2017-07-04T07:19:59.211Z,125
2017-07-04T07:20:24.770Z,125
2017-07-04T07:20:50.231Z,130
2017-07-04T07:21:15.762Z,125
2017-07-04T07:21:41.201Z,125
2017-07-04T07:22:06.662Z,120
2017-07-04T07:22:32.143Z,120
2017-07-04T07:22:57.571Z,115
2017-07-04T07:23:23.050Z,115
2017-07-04T07:23:48.535Z,115
2017-07-04T07:24:13.954Z,120
2017-07-04T07:24:39.390Z,125
2017-07-04T07:25:04.875Z,125
2017-07-04T07:25:30.341Z,130
2017-07-04T07:25:55.770Z,125
2017-07-04T07:26:21.250Z,120
2017-07-04T07:26:46.722Z,115
2017-07-04T07:27:12.149Z,115
2017-07-04T07:27:37.640Z,110
2017-07-04T07:28:03.096Z,105
2017-07-04T07:28:28.610Z,95
2017-07-04T07:28:54.039Z,90
2017-07-04T07:29:19.506Z,85
2017-07-04T07:29:44.971Z,75
2017-07-04T07:30:10.469Z,75
2017-07-04T07:30:35.936Z,70
2017-07-04T07:31:01.424Z,70
2017-07-04T07:31:26.884Z,70
2017-07-04T07:31:52.344Z,80
2017-07-04T07:32:17.828Z,100
2017-07-04T07:32:43.278Z,125
2017-07-04T07:33:08.740Z,140
2017-07-04T07:33:34.204Z,150
2017-07-04T07:33:59.681Z,150
2017-07-04T07:34:25.120Z,155
2017-07-04T07:34:50.577Z,160
2017-07-04T07:35:16.064Z,165
2017-07-04T07:35:41.500Z,165
2017-07-04T07:36:06.967Z,170
2017-07-04T07:36:32.441Z,180
2017-07-04T07:36:57.895Z,185
2017-07-04T07:37:23.355Z,200
2017-07-04T07:37:48.821Z,215
2017-07-04T07:38:14.270Z,210
2017-07-04T07:38:39.739Z,215
2017-07-04T07:39:05.209Z,220
2017-07-04T07:39:30.675Z,240
2017-07-04T07:39:56.150Z,240
2017-07-04T07:40:21.612Z,235
2017-07-04T07:40:47.073Z,215
2017-07-04T07:41:12.547Z,195
2017-07-04T07:41:38.038Z,175
2017-07-04T07:42:03.486Z,155
2017-07-04T07:42:28.938Z,145
2017-07-04T07:42:54.408Z,135
2017-07-04T07:43:19.856Z,120
2017-07-04T07:43:45.349Z,105
2017-07-04T07:44:10.847Z,100
2017-07-04T07:44:36.278Z,95
2017-07-04T07:45:01.770Z,90
2017-07-04T07:45:27.197Z,90
2017-07-04T07:45:52.726Z,110
2017-07-04T07:46:18.160Z,145
2017-07-04T07:46:43.613Z,180
2017-07-04T07:47:09.081Z,195
2017-07-04T07:47:34.558Z,185
2017-07-04T07:48:00.020Z,165
2017-07-04T07:48:25.476Z,150
2017-07-04T07:48:50.962Z,145
2017-07-04T07:49:16.373Z,145
2017-07-04T07:49:41.837Z,140
2017-07-04T07:50:07.323Z,135
2017-07-04T07:50:32.796Z,125
2017-07-04T07:50:58.285Z,120
2017-07-04T07:51:23.739Z,125
2017-07-04T07:51:49.250Z,140
2017-07-04T07:52:14.655Z,155
2017-07-04T07:52:40.162Z,180
2017-07-04T07:53:05.632Z,205
2017-07-04T07:53:31.061Z,220
2017-07-04T07:53:56.545Z,215
2017-07-04T07:54:22.100Z,210
2017-07-04T07:54:47.547Z,225
2017-07-04T07:55:12.980Z,240
2017-07-04T07:55:38.458Z,250
2017-07-04T07:56:04.011Z,240
2017-07-04T07:56:29.432Z,225
2017-07-04T07:56:54.920Z,205
2017-07-04T07:57:20.344Z,185
2017-07-04T07:57:45.852Z,190
2017-07-04T07:58:11.293Z,200
2017-07-04T07:58:36.786Z,225
2017-07-04T07:59:02.218Z,235
2017-07-04T07:59:27.739Z,245
2017-07-04T07:59:53.184Z,265
2017-07-04T08:00:18.651Z,285
2017-07-04T08:00:44.109Z,250
2017-07-04T08:01:09.591Z,240
2017-07-04T08:01:35.106Z,225
2017-07-04T08:02:00.613Z,220
2017-07-04T08:02:26.113Z,200
2017-07-04T08:02:51.620Z,185
2017-07-04T08:03:17.086Z,175
2017-07-04T08:03:42.566Z,180
2017-07-04T08:04:08.058Z,195
2017-07-04T08:04:33.504Z,220
2017-07-04T08:04:58.990Z,250
2017-07-04T08:05:24.491Z,270
2017-07-04T08:05:49.973Z,280
2017-07-04T08:06:15.452Z,275
2017-07-04T08:06:40.891Z,260
2017-07-04T08:07:06.364Z,230
2017-07-04T08:07:31.838Z,205
2017-07-04T08:07:57.283Z,190
2017-07-04T08:08:22.769Z,170
2017-07-04T08:08:48.228Z,175
2017-07-04T08:09:13.732Z,180
2017-07-04T08:09:39.186Z,225
2017-07-04T08:10:04.641Z,245
2017-07-04T08:10:30.123Z,250
2017-07-04T08:10:55.574Z,240
2017-07-04T08:11:21.097Z,225
2017-07-04T08:11:46.599Z,225
2017-07-04T08:12:12.004Z,225
2017-07-04T08:12:37.460Z,225
2017-07-04T08:13:02.956Z,255
2017-07-04T08:13:28.434Z,295
2017-07-04T08:13:53.892Z,325
2017-07-04T08:14:19.384Z,305
2017-07-04T08:14:44.891Z,260
2017-07-04T08:15:10.333Z,255
2017-07-04T08:15:35.813Z,255
2017-07-04T08:16:01.277Z,265
2017-07-04T08:16:26.709Z,260
2017-07-04T08:16:52.197Z,265
2017-07-04T08:17:17.671Z,270
2017-07-04T08:17:43.123Z,260
2017-07-04T08:18:08.614Z,235
2017-07-04T08:18:34.084Z,225
2017-07-04T08:18:59.558Z,240
2017-07-04T08:19:24.986Z,280
2017-07-04T08:19:50.476Z,300
2017-07-04T08:20:15.961Z,305
2017-07-04T08:20:41.427Z,305
2017-07-04T08:21:06.893Z,295
2017-07-04T08:21:32.386Z,290
2017-07-04T08:21:57.885Z,275
2017-07-04T08:22:23.364Z,285
2017-07-04T08:22:48.829Z,300
2017-07-04T08:23:14.281Z,330
2017-07-04T08:23:39.780Z,310
2017-07-04T08:24:05.224Z,270
2017-07-04T08:24:30.729Z,255
2017-07-04T08:24:56.133Z,265
2017-07-04T08:25:21.635Z,270
2017-07-04T08:25:47.047Z,245
2017-07-04T08:26:12.505Z,215
2017-07-04T08:26:37.962Z,190
2017-07-04T08:27:03.459Z,185
2017-07-04T08:27:29.009Z,190
2017-07-04T08:27:54.601Z,205
2017-07-04T08:28:20.157Z,220
2017-07-04T08:28:45.741Z,215
2017-07-04T08:29:11.280Z,205
2017-07-04T08:29:36.793Z,205
2017-07-04T08:30:02.359Z,220
2017-07-04T08:30:28.056Z,220
2017-07-04T08:30:53.456Z,220
2017-07-04T08:31:19.076Z,205
2017-07-04T08:31:44.552Z,190
2017-07-04T08:32:10.140Z,180
2017-07-04T08:32:35.786Z,175
2017-07-04T08:33:01.230Z,180
2017-07-04T08:33:26.725Z,195
2017-07-04T08:33:52.176Z,215
2017-07-04T08:34:17.616Z,230
2017-07-04T08:34:43.093Z,225
2017-07-04T08:35:08.557Z,240
2017-07-04T08:35:34.015Z,270
2017-07-04T08:35:59.477Z,300
2017-07-04T08:36:24.946Z,290
2017-07-04T08:36:50.397Z,265
2017-07-04T08:37:15.848Z,240
2017-07-04T08:37:41.308Z,225
2017-07-04T08:38:06.790Z,210
2017-07-04T08:38:32.248Z,210
2017-07-04T08:38:57.706Z,215
2017-07-04T08:39:23.182Z,235
2017-07-04T08:39:48.646Z,250
2017-07-04T08:40:14.075Z,265
2017-07-04T08:40:39.586Z,305
2017-07-04T08:41:05.056Z,345
2017-07-04T08:41:30.465Z,370
2017-07-04T08:41:55.966Z,395
2017-07-04T08:42:21.448Z,375
2017-07-04T08:42:46.895Z,355
2017-07-04T08:43:12.375Z,355
2017-07-04T08:43:37.821Z,315
2017-07-04T08:44:03.318Z,315
2017-07-04T08:44:28.739Z,300
2017-07-04T08:44:54.211Z,265
2017-07-04T08:45:19.662Z,235
2017-07-04T08:45:45.147Z,225
2017-07-04T08:46:10.611Z,245
2017-07-04T08:46:36.074Z,265
2017-07-04T08:47:01.515Z,305
2017-07-04T08:47:27.004Z,295
2017-07-04T08:47:52.445Z,300
2017-07-04T08:48:17.911Z,295
2017-07-04T08:48:43.402Z,290
2017-07-04T08:49:08.818Z,270
2017-07-04T08:49:34.291Z,270
2017-07-04T08:49:59.747Z,280
2017-07-04T08:50:25.206Z,295
2017-07-04T08:50:50.695Z,295
2017-07-04T08:51:16.149Z,305
2017-07-04T08:51:41.615Z,315
2017-07-04T08:52:07.077Z,315
2017-07-04T08:52:32.509Z,305
2017-07-04T08:52:58.005Z,300
2017-07-04T08:53:23.474Z,325
2017-07-04T08:53:48.957Z,325
2017-07-04T08:54:14.419Z,325
2017-07-04T08:54:39.926Z,300
2017-07-04T08:55:05.374Z,285
2017-07-04T08:55:30.817Z,270
2017-07-04T08:55:56.263Z,285
2017-07-04T08:56:21.746Z,275
2017-07-04T08:56:47.225Z,295
2017-07-04T08:57:12.684Z,300
2017-07-04T08:57:38.141Z,295
2017-07-04T08:58:03.607Z,275
2017-07-04T08:58:29.077Z,255
2017-07-04T08:58:54.544Z,240
2017-07-04T08:59:20.001Z,235
2017-07-04T08:59:45.487Z,210
2017-07-04T09:00:10.941Z,175
2017-07-04T09:00:36.408Z,190
2017-07-04T09:01:01.878Z,230
2017-07-04T09:01:27.331Z,265
2017-07-04T09:01:52.802Z,265
2017-07-04T09:02:18.280Z,245
2017-07-04T09:02:43.715Z,245
2017-07-04T09:03:09.173Z,225
2017-07-04T09:03:34.652Z,235
2017-07-04T09:04:00.118Z,220
2017-07-04T09:04:25.579Z,205
2017-07-04T09:04:51.104Z,205
2017-07-04T09:05:16.538Z,205
2017-07-04T09:05:41.987Z,205
2017-07-04T09:06:07.451Z,215
2017-07-04T09:06:32.911Z,210
2017-07-04T09:06:58.368Z,210
2017-07-04T09:07:23.854Z,225
2017-07-04T09:07:49.297Z,250
2017-07-04T09:08:14.771Z,290
2017-07-04T09:08:40.217Z,300
2017-07-04T09:09:05.723Z,320
2017-07-04T09:09:31.157Z,300
2017-07-04T09:09:56.638Z,295
2017-07-04T09:10:22.098Z,295
2017-07-04T09:10:47.608Z,290
2017-07-04T09:11:13.038Z,270
2017-07-04T09:11:38.497Z,265
2017-07-04T09:12:03.945Z,280
2017-07-04T09:12:29.396Z,285
2017-07-04T09:12:54.877Z,275
2017-07-04T09:13:20.319Z,255
2017-07-04T09:13:45.767Z,245
2017-07-04T09:14:11.262Z,280
2017-07-04T09:14:36.719Z,290
2017-07-04T09:15:02.202Z,290
2017-07-04T09:15:27.642Z,290
2017-07-04T09:15:53.106Z,315
2017-07-04T09:16:18.592Z,305
2017-07-04T09:16:44.076Z,290
2017-07-04T09:17:09.568Z,285
2017-07-04T09:17:35.016Z,285
2017-07-04T09:18:00.524Z,285
2017-07-04T09:18:25.946Z,285
2017-07-04T09:18:51.404Z,295
2017-07-04T09:19:16.870Z,305
2017-07-04T09:19:42.341Z,300
2017-07-04T09:20:07.798Z,290
2017-07-04T09:20:33.256Z,295
2017-07-04T09:20:58.731Z,295
2017-07-04T09:21:24.195Z,300
2017-07-04T09:21:49.651Z,295
2017-07-04T09:22:15.140Z,290
2017-07-04T09:22:40.592Z,290
2017-07-04T09:23:06.060Z,295
2017-07-04T09:23:31.529Z,295
2017-07-04T09:23:56.975Z,310
2017-07-04T09:24:22.423Z,315
2017-07-04T09:24:47.881Z,325
2017-07-04T09:25:13.402Z,320
2017-07-04T09:25:38.851Z,305
2017-07-04T09:26:04.300Z,315
2017-07-04T09:26:29.779Z,310
2017-07-04T09:26:55.244Z,270
2017-07-04T09:27:20.722Z,240
2017-07-04T09:27:46.195Z,235
2017-07-04T09:28:11.641Z,230
2017-07-04T09:28:37.131Z,225
2017-07-04T09:29:02.594Z,195
2017-07-04T09:29:28.070Z,210
2017-07-04T09:29:53.531Z,205
2017-07-04T09:30:19.016Z,205
2017-07-04T09:30:44.477Z,220
2017-07-04T09:31:09.943Z,235
2017-07-04T09:31:35.413Z,235
2017-07-04T09:32:00.852Z,250
2017-07-04T09:32:26.340Z,225
2017-07-04T09:32:51.847Z,210
2017-07-04T09:33:17.295Z,220
2017-07-04T09:33:42.740Z,210
2017-07-04T09:34:08.228Z,200
2017-07-04T09:34:33.696Z,215
2017-07-04T09:34:59.174Z,240
2017-07-04T09:35:24.669Z,265
2017-07-04T09:35:50.113Z,290
2017-07-04T09:36:15.597Z,290
2017-07-04T09:36:41.038Z,290
2017-07-04T09:37:06.514Z,310
2017-07-04T09:37:31.991Z,300
2017-07-04T09:37:57.442Z,295
2017-07-04T09:38:22.908Z,295
2017-07-04T09:38:48.393Z,315
2017-07-04T09:39:13.851Z,285
2017-07-04T09:39:39.351Z,295
2017-07-04T09:40:04.790Z,295
2017-07-04T09:40:30.300Z,335
2017-07-04T09:40:55.745Z,355
2017-07-04T09:41:21.245Z,340
2017-07-04T09:41:46.725Z,330
2017-07-04T09:42:12.221Z,305
2017-07-04T09:42:37.675Z,310
2017-07-04T09:43:03.167Z,300
2017-07-04T09:43:28.611Z,305
2017-07-04T09:43:54.061Z,315
2017-07-04T09:44:19.552Z,325
2017-07-04T09:44:45.084Z,325
2017-07-04T09:45:10.546Z,325
2017-07-04T09:45:36.017Z,340
2017-07-04T09:46:01.496Z,350
2017-07-04T09:46:27.034Z,355
2017-07-04T09:46:52.496Z,370
2017-07-04T09:47:17.961Z,375
2017-07-04T09:47:43.503Z,380
2017-07-04T09:48:09.067Z,395
2017-07-04T09:48:34.439Z,395
2017-07-04T09:48:59.880Z,360
2017-07-04T09:49:25.360Z,380
2017-07-04T09:49:50.811Z,385
2017-07-04T09:50:16.249Z,380
2017-07-04T09:50:41.721Z,335
2017-07-04T09:51:07.211Z,345
2017-07-04T09:51:32.700Z,335
2017-07-04T09:51:58.148Z,330
2017-07-04T09:52:23.608Z,330
2017-07-04T09:52:49.049Z,315
2017-07-04T09:53:14.499Z,350
2017-07-04T09:53:39.976Z,360
2017-07-04T09:54:05.442Z,365
2017-07-04T09:54:30.894Z,375
2017-07-04T09:54:56.354Z,375
2017-07-04T09:55:21.824Z,370
2017-07-04T09:55:47.302Z,385
2017-07-04T09:56:12.745Z,385
2017-07-04T09:56:38.213Z,355
2017-07-04T09:57:03.651Z,360
2017-07-04T09:57:29.109Z,325
2017-07-04T09:57:54.566Z,320